Terminal Aerodrome Forecast
Issued by NWS

Home | Current Version | Previous Version | Text Only | Print | Product List | Glossary On
Versions: 1 2 3 4 5 6 7 8 9 10 11 12 13
000
FTUS43 KICT 081740
TAFHUT
TAF
KHUT 081740Z 0818/0918 34009KT P6SM SKC
     FM082300 34007KT P6SM SKC
     FM090600 VRB03KT P6SM BKN070
     FM091500 13009KT P6SM OVC070=

USA.gov is the U.S. government's official web portal to all federal, state and local government web resources and services.